sensor_id;sensor_type;location;lat;lon;timestamp;P1;durP1;ratioP1;P2;durP2;ratioP2
30048;SDS011;16879;50.852;15.602;2023-05-08T00:02:04;8.00;;;5.45;;
30048;SDS011;16879;50.852;15.602;2023-05-08T00:04:30;7.75;;;5.82;;
30048;SDS011;16879;50.852;15.602;2023-05-08T00:06:56;6.22;;;5.55;;
30048;SDS011;16879;50.852;15.602;2023-05-08T00:09:22;6.07;;;5.38;;
30048;SDS011;16879;50.852;15.602;2023-05-08T00:11:49;6.15;;;5.55;;
30048;SDS011;16879;50.852;15.602;2023-05-08T00:14:15;6.45;;;5.85;;
30048;SDS011;16879;50.852;15.602;2023-05-08T00:16:41;5.07;;;4.43;;
30048;SDS011;16879;50.852;15.602;2023-05-08T00:19:07;5.00;;;4.40;;
30048;SDS011;16879;50.852;15.602;2023-05-08T00:21:33;5.25;;;4.75;;
30048;SDS011;16879;50.852;15.602;2023-05-08T00:24:00;4.95;;;4.50;;
30048;SDS011;16879;50.852;15.602;2023-05-08T00:26:26;4.82;;;4.43;;
30048;SDS011;16879;50.852;15.602;2023-05-08T00:28:52;5.28;;;4.78;;
30048;SDS011;16879;50.852;15.602;2023-05-08T00:31:18;7.30;;;4.40;;
30048;SDS011;16879;50.852;15.602;2023-05-08T00:33:44;5.95;;;5.35;;
30048;SDS011;16879;50.852;15.602;2023-05-08T00:36:11;5.70;;;4.95;;
30048;SDS011;16879;50.852;15.602;2023-05-08T00:38:39;7.28;;;5.07;;
30048;SDS011;16879;50.852;15.602;2023-05-08T00:41:08;5.80;;;5.30;;
30048;SDS011;16879;50.852;15.602;2023-05-08T00:43:35;5.53;;;5.03;;
30048;SDS011;16879;50.852;15.602;2023-05-08T00:46:05;5.97;;;5.35;;
30048;SDS011;16879;50.852;15.602;2023-05-08T00:48:33;7.88;;;6.60;;
30048;SDS011;16879;50.852;15.602;2023-05-08T00:51:01;9.38;;;6.45;;
30048;SDS011;16879;50.852;15.602;2023-05-08T00:53:29;8.43;;;6.82;;
30048;SDS011;16879;50.852;15.602;2023-05-08T00:55:58;7.90;;;6.88;;
30048;SDS011;16879;50.852;15.602;2023-05-08T00:58:25;8.60;;;6.78;;
30048;SDS011;16879;50.852;15.602;2023-05-08T01:00:52;7.68;;;6.88;;
30048;SDS011;16879;50.852;15.602;2023-05-08T01:03:20;10.63;;;7.22;;
30048;SDS011;16879;50.852;15.602;2023-05-08T01:05:48;9.13;;;7.32;;
30048;SDS011;16879;50.852;15.602;2023-05-08T01:08:14;10.43;;;8.02;;
30048;SDS011;16879;50.852;15.602;2023-05-08T01:13:39;9.40;;;7.07;;
30048;SDS011;16879;50.852;15.602;2023-05-08T01:16:10;12.80;;;8.07;;
30048;SDS011;16879;50.852;15.602;2023-05-08T01:21:30;13.32;;;8.43;;
30048;SDS011;16879;50.852;15.602;2023-05-08T01:24:05;17.17;;;9.95;;
30048;SDS011;16879;50.852;15.602;2023-05-08T01:31:35;19.45;;;12.18;;
30048;SDS011;16879;50.852;15.602;2023-05-08T01:34:05;17.38;;;10.85;;
30048;SDS011;16879;50.852;15.602;2023-05-08T01:36:36;16.35;;;10.20;;
30048;SDS011;16879;50.852;15.602;2023-05-08T01:39:16;15.15;;;9.40;;
30048;SDS011;16879;50.852;15.602;2023-05-08T01:41:45;14.88;;;9.07;;
30048;SDS011;16879;50.852;15.602;2023-05-08T01:46:39;12.68;;;9.05;;
30048;SDS011;16879;50.852;15.602;2023-05-08T01:49:08;13.05;;;8.70;;
30048;SDS011;16879;50.852;15.602;2023-05-08T01:51:39;11.20;;;9.07;;
30048;SDS011;16879;50.852;15.602;2023-05-08T01:54:07;11.82;;;10.05;;
30048;SDS011;16879;50.852;15.602;2023-05-08T01:56:34;15.50;;;9.75;;
30048;SDS011;16879;50.852;15.602;2023-05-08T01:59:02;15.68;;;9.75;;
30048;SDS011;16879;50.852;15.602;2023-05-08T02:01:30;13.63;;;8.65;;
30048;SDS011;16879;50.852;15.602;2023-05-08T02:03:57;10.85;;;9.20;;
30048;SDS011;16879;50.852;15.602;2023-05-08T02:06:24;11.00;;;9.13;;
30048;SDS011;16879;50.852;15.602;2023-05-08T02:08:51;15.05;;;8.27;;
30048;SDS011;16879;50.852;15.602;2023-05-08T02:11:18;12.75;;;9.98;;
30048;SDS011;16879;50.852;15.602;2023-05-08T02:13:45;11.88;;;9.02;;
30048;SDS011;16879;50.852;15.602;2023-05-08T02:16:13;11.07;;;8.85;;
30048;SDS011;16879;50.852;15.602;2023-05-08T02:18:42;10.20;;;8.73;;
30048;SDS011;16879;50.852;15.602;2023-05-08T02:21:09;11.95;;;9.05;;
30048;SDS011;16879;50.852;15.602;2023-05-08T02:23:37;12.38;;;8.90;;
30048;SDS011;16879;50.852;15.602;2023-05-08T02:26:03;14.13;;;8.90;;
30048;SDS011;16879;50.852;15.602;2023-05-08T02:28:29;12.38;;;9.18;;
30048;SDS011;16879;50.852;15.602;2023-05-08T02:30:56;13.80;;;9.65;;
30048;SDS011;16879;50.852;15.602;2023-05-08T02:33:23;13.38;;;10.10;;
30048;SDS011;16879;50.852;15.602;2023-05-08T02:35:52;16.27;;;9.60;;
30048;SDS011;16879;50.852;15.602;2023-05-08T02:38:19;11.73;;;9.18;;
30048;SDS011;16879;50.852;15.602;2023-05-08T02:40:47;15.02;;;10.13;;
30048;SDS011;16879;50.852;15.602;2023-05-08T02:43:14;16.17;;;10.88;;
30048;SDS011;16879;50.852;15.602;2023-05-08T02:46:26;17.27;;;10.02;;
30048;SDS011;16879;50.852;15.602;2023-05-08T02:48:34;13.77;;;8.65;;
30048;SDS011;16879;50.852;15.602;2023-05-08T02:51:03;11.50;;;9.43;;
30048;SDS011;16879;50.852;15.602;2023-05-08T02:53:34;10.75;;;8.23;;
30048;SDS011;16879;50.852;15.602;2023-05-08T02:56:02;13.27;;;10.25;;
30048;SDS011;16879;50.852;15.602;2023-05-08T02:58:34;13.57;;;9.32;;
30048;SDS011;16879;50.852;15.602;2023-05-08T03:01:03;10.38;;;8.35;;
30048;SDS011;16879;50.852;15.602;2023-05-08T03:03:37;13.77;;;9.65;;
30048;SDS011;16879;50.852;15.602;2023-05-08T03:06:07;10.75;;;8.60;;
30048;SDS011;16879;50.852;15.602;2023-05-08T03:08:35;10.50;;;9.35;;
30048;SDS011;16879;50.852;15.602;2023-05-08T03:11:05;15.13;;;9.32;;
30048;SDS011;16879;50.852;15.602;2023-05-08T03:13:33;11.65;;;9.05;;
30048;SDS011;16879;50.852;15.602;2023-05-08T03:16:00;10.77;;;8.20;;
30048;SDS011;16879;50.852;15.602;2023-05-08T03:18:40;10.73;;;8.32;;
30048;SDS011;16879;50.852;15.602;2023-05-08T03:21:07;13.07;;;8.13;;
30048;SDS011;16879;50.852;15.602;2023-05-08T03:23:34;13.27;;;8.90;;
30048;SDS011;16879;50.852;15.602;2023-05-08T03:26:01;11.68;;;9.00;;
30048;SDS011;16879;50.852;15.602;2023-05-08T03:28:28;9.65;;;7.32;;
30048;SDS011;16879;50.852;15.602;2023-05-08T03:30:55;11.07;;;8.65;;
30048;SDS011;16879;50.852;15.602;2023-05-08T03:33:22;12.93;;;8.45;;
30048;SDS011;16879;50.852;15.602;2023-05-08T03:35:48;14.07;;;9.30;;
30048;SDS011;16879;50.852;15.602;2023-05-08T03:38:17;13.93;;;8.07;;
30048;SDS011;16879;50.852;15.602;2023-05-08T03:40:43;11.30;;;8.07;;
30048;SDS011;16879;50.852;15.602;2023-05-08T03:43:14;8.52;;;7.57;;
30048;SDS011;16879;50.852;15.602;2023-05-08T03:45:41;9.70;;;7.68;;
30048;SDS011;16879;50.852;15.602;2023-05-08T03:48:08;13.40;;;8.38;;
30048;SDS011;16879;50.852;15.602;2023-05-08T03:50:36;10.43;;;7.88;;
30048;SDS011;16879;50.852;15.602;2023-05-08T03:53:02;10.80;;;7.13;;
30048;SDS011;16879;50.852;15.602;2023-05-08T03:55:29;10.38;;;8.00;;
30048;SDS011;16879;50.852;15.602;2023-05-08T04:00:28;8.95;;;7.20;;
30048;SDS011;16879;50.852;15.602;2023-05-08T04:03:01;8.65;;;6.88;;
30048;SDS011;16879;50.852;15.602;2023-05-08T04:05:34;9.07;;;7.20;;
30048;SDS011;16879;50.852;15.602;2023-05-08T04:11:03;12.45;;;7.65;;
30048;SDS011;16879;50.852;15.602;2023-05-08T04:13:31;16.05;;;9.80;;
30048;SDS011;16879;50.852;15.602;2023-05-08T04:18:35;21.23;;;9.88;;
30048;SDS011;16879;50.852;15.602;2023-05-08T04:21:08;16.20;;;8.93;;
30048;SDS011;16879;50.852;15.602;2023-05-08T04:23:35;9.10;;;6.60;;
30048;SDS011;16879;50.852;15.602;2023-05-08T04:26:03;8.02;;;6.68;;
30048;SDS011;16879;50.852;15.602;2023-05-08T04:28:32;13.02;;;8.73;;
30048;SDS011;16879;50.852;15.602;2023-05-08T04:30:59;12.15;;;7.97;;
30048;SDS011;16879;50.852;15.602;2023-05-08T04:33:26;11.27;;;8.45;;
30048;SDS011;16879;50.852;15.602;2023-05-08T04:35:53;9.82;;;7.55;;
30048;SDS011;16879;50.852;15.602;2023-05-08T04:38:19;12.38;;;8.45;;
30048;SDS011;16879;50.852;15.602;2023-05-08T04:40:45;12.25;;;7.97;;
30048;SDS011;16879;50.852;15.602;2023-05-08T04:43:11;11.85;;;8.05;;
30048;SDS011;16879;50.852;15.602;2023-05-08T04:45:37;9.10;;;6.90;;
30048;SDS011;16879;50.852;15.602;2023-05-08T04:48:03;9.35;;;7.22;;
30048;SDS011;16879;50.852;15.602;2023-05-08T04:50:29;9.07;;;6.85;;
30048;SDS011;16879;50.852;15.602;2023-05-08T04:52:55;8.40;;;7.35;;
30048;SDS011;16879;50.852;15.602;2023-05-08T04:55:21;8.40;;;6.13;;
30048;SDS011;16879;50.852;15.602;2023-05-08T04:57:47;8.00;;;6.57;;
30048;SDS011;16879;50.852;15.602;2023-05-08T05:00:14;8.40;;;6.30;;
30048;SDS011;16879;50.852;15.602;2023-05-08T05:02:40;11.52;;;8.32;;
30048;SDS011;16879;50.852;15.602;2023-05-08T05:05:06;7.45;;;5.47;;
30048;SDS011;16879;50.852;15.602;2023-05-08T05:07:32;13.63;;;9.48;;
30048;SDS011;16879;50.852;15.602;2023-05-08T05:09:58;14.35;;;11.27;;
30048;SDS011;16879;50.852;15.602;2023-05-08T05:12:24;12.68;;;9.13;;
30048;SDS011;16879;50.852;15.602;2023-05-08T05:14:50;13.50;;;9.18;;
30048;SDS011;16879;50.852;15.602;2023-05-08T05:17:18;9.93;;;8.07;;
30048;SDS011;16879;50.852;15.602;2023-05-08T05:19:44;10.60;;;8.73;;
30048;SDS011;16879;50.852;15.602;2023-05-08T05:22:11;10.18;;;8.80;;
30048;SDS011;16879;50.852;15.602;2023-05-08T05:24:37;12.98;;;8.90;;
30048;SDS011;16879;50.852;15.602;2023-05-08T05:27:04;10.98;;;8.07;;
30048;SDS011;16879;50.852;15.602;2023-05-08T05:29:30;10.30;;;8.70;;
30048;SDS011;16879;50.852;15.602;2023-05-08T05:31:56;9.57;;;7.95;;
30048;SDS011;16879;50.852;15.602;2023-05-08T05:34:22;10.70;;;8.35;;
30048;SDS011;16879;50.852;15.602;2023-05-08T05:36:48;9.27;;;7.13;;
30048;SDS011;16879;50.852;15.602;2023-05-08T05:39:14;7.07;;;5.75;;
30048;SDS011;16879;50.852;15.602;2023-05-08T05:41:41;11.38;;;6.80;;
30048;SDS011;16879;50.852;15.602;2023-05-08T05:44:08;8.82;;;6.60;;
30048;SDS011;16879;50.852;15.602;2023-05-08T05:46:41;7.60;;;5.88;;
30048;SDS011;16879;50.852;15.602;2023-05-08T05:49:07;8.85;;;6.72;;
30048;SDS011;16879;50.852;15.602;2023-05-08T05:51:34;9.82;;;6.43;;
30048;SDS011;16879;50.852;15.602;2023-05-08T05:53:59;8.98;;;6.35;;
30048;SDS011;16879;50.852;15.602;2023-05-08T05:56:26;6.53;;;5.50;;
30048;SDS011;16879;50.852;15.602;2023-05-08T05:58:52;7.55;;;6.68;;
30048;SDS011;16879;50.852;15.602;2023-05-08T06:01:18;9.95;;;7.97;;
30048;SDS011;16879;50.852;15.602;2023-05-08T06:03:44;8.75;;;6.72;;
30048;SDS011;16879;50.852;15.602;2023-05-08T06:06:11;7.35;;;6.00;;
30048;SDS011;16879;50.852;15.602;2023-05-08T06:08:40;6.50;;;5.13;;
30048;SDS011;16879;50.852;15.602;2023-05-08T06:11:10;8.05;;;6.38;;
30048;SDS011;16879;50.852;15.602;2023-05-08T06:13:38;8.10;;;5.65;;
30048;SDS011;16879;50.852;15.602;2023-05-08T06:16:05;6.53;;;5.85;;
30048;SDS011;16879;50.852;15.602;2023-05-08T06:18:33;8.82;;;6.20;;
30048;SDS011;16879;50.852;15.602;2023-05-08T06:20:59;7.93;;;5.80;;
30048;SDS011;16879;50.852;15.602;2023-05-08T06:23:26;5.95;;;5.38;;
30048;SDS011;16879;50.852;15.602;2023-05-08T06:25:52;7.47;;;5.38;;
30048;SDS011;16879;50.852;15.602;2023-05-08T06:28:19;5.68;;;4.63;;
30048;SDS011;16879;50.852;15.602;2023-05-08T06:30:48;6.18;;;5.07;;
30048;SDS011;16879;50.852;15.602;2023-05-08T06:33:14;6.65;;;4.68;;
30048;SDS011;16879;50.852;15.602;2023-05-08T06:35:40;3.88;;;2.75;;
30048;SDS011;16879;50.852;15.602;2023-05-08T06:38:06;2.40;;;2.20;;
30048;SDS011;16879;50.852;15.602;2023-05-08T06:40:32;4.00;;;2.95;;
30048;SDS011;16879;50.852;15.602;2023-05-08T06:42:58;3.78;;;2.22;;
30048;SDS011;16879;50.852;15.602;2023-05-08T06:45:24;2.90;;;2.60;;
30048;SDS011;16879;50.852;15.602;2023-05-08T06:47:51;5.00;;;2.90;;
30048;SDS011;16879;50.852;15.602;2023-05-08T06:50:17;5.20;;;2.70;;
30048;SDS011;16879;50.852;15.602;2023-05-08T06:52:43;3.10;;;2.30;;
30048;SDS011;16879;50.852;15.602;2023-05-08T06:55:09;5.28;;;3.08;;
30048;SDS011;16879;50.852;15.602;2023-05-08T06:57:36;3.90;;;3.20;;
30048;SDS011;16879;50.852;15.602;2023-05-08T07:00:02;5.53;;;3.10;;
30048;SDS011;16879;50.852;15.602;2023-05-08T07:02:29;4.15;;;3.28;;
30048;SDS011;16879;50.852;15.602;2023-05-08T07:04:55;4.88;;;2.60;;
30048;SDS011;16879;50.852;15.602;2023-05-08T07:07:21;5.25;;;3.38;;
30048;SDS011;16879;50.852;15.602;2023-05-08T07:09:47;3.70;;;3.22;;
30048;SDS011;16879;50.852;15.602;2023-05-08T07:12:14;3.60;;;2.70;;
30048;SDS011;16879;50.852;15.602;2023-05-08T07:14:41;3.15;;;2.85;;
30048;SDS011;16879;50.852;15.602;2023-05-08T07:17:07;4.45;;;3.47;;
30048;SDS011;16879;50.852;15.602;2023-05-08T07:19:36;5.53;;;3.15;;
30048;SDS011;16879;50.852;15.602;2023-05-08T07:22:03;3.72;;;3.08;;
30048;SDS011;16879;50.852;15.602;2023-05-08T07:24:30;4.43;;;3.20;;
30048;SDS011;16879;50.852;15.602;2023-05-08T07:26:56;3.63;;;3.00;;
30048;SDS011;16879;50.852;15.602;2023-05-08T07:29:24;4.25;;;2.78;;
30048;SDS011;16879;50.852;15.602;2023-05-08T07:31:50;3.40;;;2.70;;
30048;SDS011;16879;50.852;15.602;2023-05-08T07:34:16;3.70;;;3.13;;
30048;SDS011;16879;50.852;15.602;2023-05-08T07:36:42;3.42;;;3.10;;
30048;SDS011;16879;50.852;15.602;2023-05-08T07:39:09;4.22;;;3.63;;
30048;SDS011;16879;50.852;15.602;2023-05-08T07:41:35;7.03;;;3.65;;
30048;SDS011;16879;50.852;15.602;2023-05-08T07:44:03;4.78;;;2.70;;
30048;SDS011;16879;50.852;15.602;2023-05-08T07:46:28;3.28;;;2.97;;
30048;SDS011;16879;50.852;15.602;2023-05-08T07:48:55;4.00;;;3.50;;
30048;SDS011;16879;50.852;15.602;2023-05-08T07:51:21;3.72;;;2.88;;
30048;SDS011;16879;50.852;15.602;2023-05-08T07:53:47;4.97;;;3.38;;
30048;SDS011;16879;50.852;15.602;2023-05-08T07:56:15;5.32;;;2.80;;
30048;SDS011;16879;50.852;15.602;2023-05-08T07:58:41;4.10;;;2.67;;
30048;SDS011;16879;50.852;15.602;2023-05-08T08:01:10;3.95;;;2.88;;
30048;SDS011;16879;50.852;15.602;2023-05-08T08:03:35;3.22;;;2.92;;
30048;SDS011;16879;50.852;15.602;2023-05-08T08:06:02;9.35;;;2.80;;
30048;SDS011;16879;50.852;15.602;2023-05-08T08:08:28;3.28;;;2.50;;
30048;SDS011;16879;50.852;15.602;2023-05-08T08:10:54;3.10;;;2.50;;
30048;SDS011;16879;50.852;15.602;2023-05-08T08:13:20;4.57;;;3.03;;
30048;SDS011;16879;50.852;15.602;2023-05-08T08:15:46;2.40;;;2.20;;
30048;SDS011;16879;50.852;15.602;2023-05-08T08:18:12;3.88;;;2.60;;
30048;SDS011;16879;50.852;15.602;2023-05-08T08:20:38;4.28;;;2.83;;
30048;SDS011;16879;50.852;15.602;2023-05-08T08:23:04;3.47;;;2.50;;
30048;SDS011;16879;50.852;15.602;2023-05-08T08:25:31;4.65;;;3.00;;
30048;SDS011;16879;50.852;15.602;2023-05-08T08:27:57;4.47;;;2.30;;
30048;SDS011;16879;50.852;15.602;2023-05-08T08:30:23;2.53;;;2.13;;
30048;SDS011;16879;50.852;15.602;2023-05-08T08:32:49;2.90;;;2.65;;
30048;SDS011;16879;50.852;15.602;2023-05-08T08:35:14;5.10;;;3.17;;
30048;SDS011;16879;50.852;15.602;2023-05-08T08:37:41;3.40;;;2.50;;
30048;SDS011;16879;50.852;15.602;2023-05-08T08:40:07;6.57;;;2.78;;
30048;SDS011;16879;50.852;15.602;2023-05-08T08:42:33;2.65;;;2.20;;
30048;SDS011;16879;50.852;15.602;2023-05-08T08:44:59;3.05;;;2.38;;
30048;SDS011;16879;50.852;15.602;2023-05-08T08:47:30;3.78;;;2.50;;
30048;SDS011;16879;50.852;15.602;2023-05-08T08:50:02;3.00;;;2.70;;
30048;SDS011;16879;50.852;15.602;2023-05-08T08:52:29;3.22;;;2.63;;
30048;SDS011;16879;50.852;15.602;2023-05-08T08:54:57;3.55;;;3.00;;
30048;SDS011;16879;50.852;15.602;2023-05-08T08:57:26;3.72;;;2.78;;
30048;SDS011;16879;50.852;15.602;2023-05-08T08:59:53;2.65;;;2.40;;
30048;SDS011;16879;50.852;15.602;2023-05-08T09:02:20;5.90;;;3.10;;
30048;SDS011;16879;50.852;15.602;2023-05-08T09:04:50;3.55;;;2.80;;
30048;SDS011;16879;50.852;15.602;2023-05-08T09:07:16;3.58;;;2.70;;
30048;SDS011;16879;50.852;15.602;2023-05-08T09:09:42;5.50;;;3.00;;
30048;SDS011;16879;50.852;15.602;2023-05-08T09:12:09;2.78;;;2.58;;
30048;SDS011;16879;50.852;15.602;2023-05-08T09:14:35;3.42;;;2.38;;
30048;SDS011;16879;50.852;15.602;2023-05-08T09:17:01;2.63;;;2.15;;
30048;SDS011;16879;50.852;15.602;2023-05-08T09:19:28;2.50;;;2.28;;
30048;SDS011;16879;50.852;15.602;2023-05-08T09:21:57;4.05;;;2.20;;
30048;SDS011;16879;50.852;15.602;2023-05-08T09:24:25;5.60;;;3.00;;
30048;SDS011;16879;50.852;15.602;2023-05-08T09:26:52;4.50;;;2.25;;
30048;SDS011;16879;50.852;15.602;2023-05-08T09:29:19;3.28;;;2.50;;
30048;SDS011;16879;50.852;15.602;2023-05-08T09:32:06;2.88;;;2.65;;
30048;SDS011;16879;50.852;15.602;2023-05-08T09:34:32;3.85;;;2.33;;
30048;SDS011;16879;50.852;15.602;2023-05-08T09:39:34;2.55;;;2.35;;
30048;SDS011;16879;50.852;15.602;2023-05-08T09:42:01;3.60;;;2.10;;
30048;SDS011;16879;50.852;15.602;2023-05-08T09:44:27;2.55;;;2.20;;
30048;SDS011;16879;50.852;15.602;2023-05-08T09:47:13;1.90;;;1.80;;
30048;SDS011;16879;50.852;15.602;2023-05-08T09:49:39;4.55;;;2.03;;
30048;SDS011;16879;50.852;15.602;2023-05-08T09:52:20;4.28;;;2.15;;
30048;SDS011;16879;50.852;15.602;2023-05-08T09:54:56;4.90;;;2.35;;
30048;SDS011;16879;50.852;15.602;2023-05-08T09:57:29;4.28;;;2.67;;
30048;SDS011;16879;50.852;15.602;2023-05-08T10:00:05;4.07;;;2.30;;
30048;SDS011;16879;50.852;15.602;2023-05-08T10:02:33;2.22;;;1.80;;
30048;SDS011;16879;50.852;15.602;2023-05-08T10:04:59;2.05;;;1.85;;
30048;SDS011;16879;50.852;15.602;2023-05-08T10:07:33;2.72;;;2.17;;
30048;SDS011;16879;50.852;15.602;2023-05-08T10:10:04;2.85;;;1.90;;
30048;SDS011;16879;50.852;15.602;2023-05-08T10:12:31;3.03;;;2.72;;
30048;SDS011;16879;50.852;15.602;2023-05-08T10:14:58;2.92;;;2.50;;
30048;SDS011;16879;50.852;15.602;2023-05-08T10:17:49;4.85;;;3.05;;
30048;SDS011;16879;50.852;15.602;2023-05-08T10:20:16;3.60;;;2.97;;
30048;SDS011;16879;50.852;15.602;2023-05-08T10:22:44;4.38;;;2.78;;
30048;SDS011;16879;50.852;15.602;2023-05-08T10:25:16;2.97;;;2.67;;
30048;SDS011;16879;50.852;15.602;2023-05-08T10:27:46;3.78;;;3.13;;
30048;SDS011;16879;50.852;15.602;2023-05-08T10:30:14;4.05;;;2.95;;
30048;SDS011;16879;50.852;15.602;2023-05-08T10:32:42;3.30;;;2.70;;
30048;SDS011;16879;50.852;15.602;2023-05-08T10:35:09;4.75;;;3.00;;
30048;SDS011;16879;50.852;15.602;2023-05-08T10:37:36;3.42;;;2.35;;
30048;SDS011;16879;50.852;15.602;2023-05-08T10:40:03;6.03;;;2.92;;
30048;SDS011;16879;50.852;15.602;2023-05-08T10:42:32;4.30;;;3.00;;
30048;SDS011;16879;50.852;15.602;2023-05-08T10:44:59;3.28;;;2.97;;
30048;SDS011;16879;50.852;15.602;2023-05-08T10:50:33;3.42;;;3.10;;
30048;SDS011;16879;50.852;15.602;2023-05-08T10:53:12;3.60;;;2.90;;
30048;SDS011;16879;50.852;15.602;2023-05-08T10:55:46;3.58;;;3.03;;
30048;SDS011;16879;50.852;15.602;2023-05-08T10:58:28;4.35;;;2.90;;
30048;SDS011;16879;50.852;15.602;2023-05-08T11:03:25;2.70;;;2.50;;
30048;SDS011;16879;50.852;15.602;2023-05-08T11:05:52;3.30;;;3.00;;
30048;SDS011;16879;50.852;15.602;2023-05-08T11:08:19;6.78;;;3.42;;
30048;SDS011;16879;50.852;15.602;2023-05-08T11:13:27;5.63;;;3.60;;
30048;SDS011;16879;50.852;15.602;2023-05-08T11:15:55;5.55;;;3.80;;
30048;SDS011;16879;50.852;15.602;2023-05-08T11:18:21;6.70;;;3.60;;
30048;SDS011;16879;50.852;15.602;2023-05-08T11:21:01;6.63;;;4.00;;
30048;SDS011;16879;50.852;15.602;2023-05-08T11:23:30;4.07;;;3.72;;
30048;SDS011;16879;50.852;15.602;2023-05-08T11:26:01;4.53;;;3.80;;
30048;SDS011;16879;50.852;15.602;2023-05-08T11:28:30;4.18;;;3.38;;
30048;SDS011;16879;50.852;15.602;2023-05-08T11:31:04;3.33;;;3.03;;
30048;SDS011;16879;50.852;15.602;2023-05-08T11:33:32;3.53;;;3.22;;
30048;SDS011;16879;50.852;15.602;2023-05-08T11:38:41;5.45;;;3.97;;
30048;SDS011;16879;50.852;15.602;2023-05-08T11:41:21;5.32;;;4.15;;
30048;SDS011;16879;50.852;15.602;2023-05-08T11:46:21;4.82;;;4.20;;
30048;SDS011;16879;50.852;15.602;2023-05-08T11:48:47;4.18;;;3.53;;
30048;SDS011;16879;50.852;15.602;2023-05-08T11:51:15;6.03;;;4.03;;
30048;SDS011;16879;50.852;15.602;2023-05-08T11:53:43;4.82;;;4.22;;
30048;SDS011;16879;50.852;15.602;2023-05-08T11:56:11;4.43;;;4.03;;
30048;SDS011;16879;50.852;15.602;2023-05-08T11:58:37;4.82;;;3.78;;
30048;SDS011;16879;50.852;15.602;2023-05-08T12:01:02;4.82;;;3.90;;
30048;SDS011;16879;50.852;15.602;2023-05-08T12:03:28;4.95;;;4.10;;
30048;SDS011;16879;50.852;15.602;2023-05-08T12:05:55;7.13;;;4.18;;
30048;SDS011;16879;50.852;15.602;2023-05-08T12:08:22;6.07;;;4.38;;
30048;SDS011;16879;50.852;15.602;2023-05-08T12:10:52;4.07;;;3.60;;
30048;SDS011;16879;50.852;15.602;2023-05-08T12:13:21;4.80;;;4.18;;
30048;SDS011;16879;50.852;15.602;2023-05-08T12:15:48;7.05;;;4.47;;
30048;SDS011;16879;50.852;15.602;2023-05-08T12:18:17;5.10;;;3.67;;
30048;SDS011;16879;50.852;15.602;2023-05-08T12:20:43;5.05;;;3.35;;
30048;SDS011;16879;50.852;15.602;2023-05-08T12:23:10;3.95;;;3.65;;
30048;SDS011;16879;50.852;15.602;2023-05-08T12:25:37;7.47;;;4.78;;
30048;SDS011;16879;50.852;15.602;2023-05-08T12:28:06;9.82;;;4.68;;
30048;SDS011;16879;50.852;15.602;2023-05-08T12:30:33;4.80;;;4.30;;
30048;SDS011;16879;50.852;15.602;2023-05-08T12:33:04;5.15;;;3.90;;
30048;SDS011;16879;50.852;15.602;2023-05-08T12:35:50;11.05;;;4.45;;
30048;SDS011;16879;50.852;15.602;2023-05-08T12:38:17;8.00;;;4.55;;
30048;SDS011;16879;50.852;15.602;2023-05-08T12:40:44;7.07;;;4.47;;
30048;SDS011;16879;50.852;15.602;2023-05-08T12:43:17;5.13;;;4.47;;
30048;SDS011;16879;50.852;15.602;2023-05-08T12:45:43;6.40;;;4.68;;
30048;SDS011;16879;50.852;15.602;2023-05-08T12:48:10;6.20;;;5.25;;
30048;SDS011;16879;50.852;15.602;2023-05-08T12:50:44;8.00;;;5.65;;
30048;SDS011;16879;50.852;15.602;2023-05-08T12:53:11;4.97;;;4.35;;
30048;SDS011;16879;50.852;15.602;2023-05-08T12:55:39;4.70;;;4.30;;
30048;SDS011;16879;50.852;15.602;2023-05-08T12:58:17;5.80;;;4.85;;
30048;SDS011;16879;50.852;15.602;2023-05-08T13:00:46;8.80;;;4.90;;
30048;SDS011;16879;50.852;15.602;2023-05-08T13:05:48;5.53;;;5.00;;
30048;SDS011;16879;50.852;15.602;2023-05-08T13:08:14;6.97;;;5.13;;
30048;SDS011;16879;50.852;15.602;2023-05-08T13:10:47;6.18;;;4.90;;
30048;SDS011;16879;50.852;15.602;2023-05-08T13:13:14;6.47;;;5.47;;
30048;SDS011;16879;50.852;15.602;2023-05-08T13:15:41;6.03;;;5.43;;
30048;SDS011;16879;50.852;15.602;2023-05-08T13:18:07;6.45;;;5.82;;
30048;SDS011;16879;50.852;15.602;2023-05-08T13:20:34;6.82;;;5.10;;
30048;SDS011;16879;50.852;15.602;2023-05-08T13:23:04;5.28;;;4.45;;
30048;SDS011;16879;50.852;15.602;2023-05-08T13:25:36;5.93;;;5.32;;
30048;SDS011;16879;50.852;15.602;2023-05-08T13:28:03;7.15;;;4.93;;
30048;SDS011;16879;50.852;15.602;2023-05-08T13:30:29;7.55;;;6.05;;
30048;SDS011;16879;50.852;15.602;2023-05-08T13:32:55;5.30;;;4.88;;
30048;SDS011;16879;50.852;15.602;2023-05-08T13:35:22;5.93;;;4.47;;
30048;SDS011;16879;50.852;15.602;2023-05-08T13:37:48;5.65;;;5.15;;
30048;SDS011;16879;50.852;15.602;2023-05-08T13:40:15;8.13;;;5.38;;
30048;SDS011;16879;50.852;15.602;2023-05-08T13:42:42;5.30;;;4.80;;
30048;SDS011;16879;50.852;15.602;2023-05-08T13:45:08;6.05;;;5.55;;
30048;SDS011;16879;50.852;15.602;2023-05-08T13:47:35;8.32;;;5.32;;
30048;SDS011;16879;50.852;15.602;2023-05-08T13:50:01;7.20;;;5.88;;
30048;SDS011;16879;50.852;15.602;2023-05-08T13:52:27;9.93;;;5.68;;
30048;SDS011;16879;50.852;15.602;2023-05-08T13:54:54;8.35;;;5.57;;
30048;SDS011;16879;50.852;15.602;2023-05-08T13:57:20;6.15;;;5.35;;
30048;SDS011;16879;50.852;15.602;2023-05-08T13:59:46;5.82;;;4.93;;
30048;SDS011;16879;50.852;15.602;2023-05-08T14:02:12;6.75;;;5.78;;
30048;SDS011;16879;50.852;15.602;2023-05-08T14:04:38;5.88;;;5.38;;
30048;SDS011;16879;50.852;15.602;2023-05-08T14:07:04;6.22;;;5.30;;
30048;SDS011;16879;50.852;15.602;2023-05-08T14:09:30;10.43;;;6.63;;
30048;SDS011;16879;50.852;15.602;2023-05-08T14:11:56;7.30;;;5.72;;
30048;SDS011;16879;50.852;15.602;2023-05-08T14:14:23;6.25;;;5.35;;
30048;SDS011;16879;50.852;15.602;2023-05-08T14:16:48;6.22;;;5.63;;
30048;SDS011;16879;50.852;15.602;2023-05-08T14:19:15;6.82;;;5.15;;
30048;SDS011;16879;50.852;15.602;2023-05-08T14:21:45;6.60;;;5.70;;
30048;SDS011;16879;50.852;15.602;2023-05-08T14:24:10;6.22;;;5.63;;
30048;SDS011;16879;50.852;15.602;2023-05-08T14:26:36;6.10;;;4.65;;
30048;SDS011;16879;50.852;15.602;2023-05-08T14:29:02;5.38;;;4.85;;
30048;SDS011;16879;50.852;15.602;2023-05-08T14:31:29;6.40;;;5.80;;
30048;SDS011;16879;50.852;15.602;2023-05-08T14:33:55;6.13;;;4.70;;
30048;SDS011;16879;50.852;15.602;2023-05-08T14:36:21;5.80;;;5.30;;
30048;SDS011;16879;50.852;15.602;2023-05-08T14:38:47;7.35;;;4.75;;
30048;SDS011;16879;50.852;15.602;2023-05-08T14:41:13;6.38;;;4.68;;
30048;SDS011;16879;50.852;15.602;2023-05-08T14:43:39;11.38;;;6.07;;
30048;SDS011;16879;50.852;15.602;2023-05-08T14:46:06;15.02;;;5.95;;
30048;SDS011;16879;50.852;15.602;2023-05-08T14:48:33;6.32;;;5.72;;
30048;SDS011;16879;50.852;15.602;2023-05-08T14:50:59;5.55;;;5.05;;
30048;SDS011;16879;50.852;15.602;2023-05-08T14:53:25;8.20;;;5.32;;
30048;SDS011;16879;50.852;15.602;2023-05-08T14:55:52;5.32;;;4.82;;
30048;SDS011;16879;50.852;15.602;2023-05-08T14:58:23;10.15;;;6.10;;
30048;SDS011;16879;50.852;15.602;2023-05-08T15:00:49;5.75;;;5.25;;
30048;SDS011;16879;50.852;15.602;2023-05-08T15:03:16;5.78;;;4.53;;
30048;SDS011;16879;50.852;15.602;2023-05-08T15:05:42;4.88;;;4.47;;
30048;SDS011;16879;50.852;15.602;2023-05-08T15:08:09;7.85;;;4.82;;
30048;SDS011;16879;50.852;15.602;2023-05-08T15:10:35;5.88;;;5.38;;
30048;SDS011;16879;50.852;15.602;2023-05-08T15:13:01;7.60;;;4.75;;
30048;SDS011;16879;50.852;15.602;2023-05-08T15:15:27;4.30;;;3.90;;